createdAt,value
2022-08-30T00:01:29.848Z,20.10
2022-08-30T00:03:58.683Z,20.10
2022-08-30T00:06:33.731Z,20.00
2022-08-30T00:11:48.609Z,20.00
2022-08-30T00:14:22.059Z,19.90
2022-08-30T00:16:55.853Z,19.90
2022-08-30T00:19:22.891Z,19.90
2022-08-30T00:21:56.664Z,19.90
2022-08-30T00:24:24.110Z,19.90
2022-08-30T00:26:57.570Z,19.90
2022-08-30T00:29:24.794Z,19.90
2022-08-30T00:31:58.784Z,20.00
2022-08-30T00:34:26.176Z,20.00
2022-08-30T00:37:00.102Z,20.00
2022-08-30T00:39:33.774Z,20.00
2022-08-30T00:42:07.824Z,20.00
2022-08-30T00:44:42.079Z,19.90
2022-08-30T00:47:09.629Z,19.90
2022-08-30T00:49:44.604Z,19.80
2022-08-30T00:52:12.869Z,19.70
2022-08-30T00:54:48.638Z,19.70
2022-08-30T00:57:15.861Z,19.70
2022-08-30T00:59:51.625Z,19.70
2022-08-30T01:02:21.695Z,19.70
2022-08-30T01:04:56.690Z,19.60
2022-08-30T01:07:32.468Z,19.60
2022-08-30T01:10:06.534Z,19.60
2022-08-30T01:12:33.899Z,19.50
2022-08-30T01:15:14.682Z,19.60
2022-08-30T01:17:48.612Z,19.60
2022-08-30T01:20:27.598Z,19.70
2022-08-30T01:23:08.761Z,19.70
2022-08-30T01:25:37.635Z,19.60
2022-08-30T01:28:17.558Z,19.60
2022-08-30T01:30:46.507Z,19.60
2022-08-30T01:33:20.820Z,19.60
2022-08-30T01:35:49.119Z,19.50
2022-08-30T01:38:17.234Z,19.50
2022-08-30T01:40:52.624Z,19.40
2022-08-30T01:43:27.285Z,19.40
2022-08-30T01:45:54.494Z,19.40
2022-08-30T01:48:31.266Z,19.40
2022-08-30T01:50:59.150Z,19.40
2022-08-30T01:53:33.534Z,19.40
2022-08-30T01:56:00.615Z,19.40
2022-08-30T01:58:35.681Z,19.40
2022-08-30T02:01:04.695Z,19.40
2022-08-30T02:03:41.815Z,19.30
2022-08-30T02:06:10.457Z,19.30
2022-08-30T02:08:44.532Z,19.30
2022-08-30T02:11:12.290Z,19.30
2022-08-30T02:13:53.623Z,19.20
2022-08-30T02:16:27.379Z,19.20
2022-08-30T02:19:01.630Z,19.20
2022-08-30T02:21:28.930Z,19.20
2022-08-30T02:24:02.530Z,19.20
2022-08-30T02:26:29.799Z,19.10
2022-08-30T02:29:05.102Z,19.10
2022-08-30T02:31:32.309Z,19.10
2022-08-30T02:33:59.624Z,19.10
2022-08-30T02:36:42.391Z,19.00
2022-08-30T02:39:16.670Z,19.00
2022-08-30T02:41:44.070Z,19.00
2022-08-30T02:44:11.461Z,19.00
2022-08-30T02:46:45.696Z,19.10
2022-08-30T02:49:34.951Z,19.10
2022-08-30T02:52:03.696Z,19.20
2022-08-30T02:54:39.690Z,19.20
2022-08-30T02:57:07.015Z,19.20
2022-08-30T02:59:46.382Z,19.30
2022-08-30T03:02:20.535Z,19.30
2022-08-30T03:04:54.751Z,19.30
2022-08-30T03:07:28.879Z,19.30
2022-08-30T03:09:56.124Z,19.30
2022-08-30T03:12:29.620Z,19.30
2022-08-30T03:15:11.890Z,19.20
2022-08-30T03:17:39.315Z,19.20
2022-08-30T03:20:13.569Z,19.10
2022-08-30T03:22:40.838Z,19.10
2022-08-30T03:25:14.611Z,19.10
2022-08-30T03:27:41.754Z,19.00
2022-08-30T03:30:16.710Z,19.00
2022-08-30T03:32:44.485Z,18.90
2022-08-30T03:35:12.339Z,18.90
2022-08-30T03:37:46.274Z,18.80
2022-08-30T03:40:15.450Z,18.80
2022-08-30T03:42:49.799Z,18.90
2022-08-30T03:45:18.149Z,18.80
2022-08-30T03:47:52.615Z,18.80
2022-08-30T03:50:26.870Z,18.80
2022-08-30T03:52:54.021Z,18.80
2022-08-30T03:55:27.819Z,18.80
2022-08-30T03:57:55.159Z,18.80
2022-08-30T04:00:29.555Z,18.90
2022-08-30T04:02:56.696Z,18.90
2022-08-30T04:05:23.805Z,19.00
2022-08-30T04:07:57.581Z,18.90
2022-08-30T04:10:24.582Z,19.00
2022-08-30T04:12:58.866Z,19.00
2022-08-30T04:15:39.580Z,19.00
2022-08-30T04:18:20.675Z,19.00
2022-08-30T04:20:47.934Z,19.00
2022-08-30T04:23:21.538Z,19.00
2022-08-30T04:25:55.825Z,19.00
2022-08-30T04:28:23.182Z,19.00
2022-08-30T04:30:56.861Z,19.00
2022-08-30T04:33:25.136Z,19.00
2022-08-30T04:35:58.839Z,19.00
2022-08-30T04:38:30.261Z,19.00
2022-08-30T04:41:04.916Z,19.00
2022-08-30T04:43:38.802Z,19.00
2022-08-30T04:46:13.832Z,19.00
2022-08-30T04:48:41.456Z,19.00
2022-08-30T04:51:17.239Z,19.00
2022-08-30T04:53:52.402Z,19.10
2022-08-30T04:56:29.741Z,19.10
2022-08-30T04:59:03.661Z,19.10
2022-08-30T05:01:45.332Z,19.10
2022-08-30T05:04:20.551Z,19.10
2022-08-30T05:06:47.721Z,19.10
2022-08-30T05:09:22.598Z,19.20
2022-08-30T05:11:49.955Z,19.20
2022-08-30T05:14:38.249Z,19.20
2022-08-30T05:17:06.063Z,19.20
2022-08-30T05:19:34.131Z,19.30
2022-08-30T05:22:07.645Z,19.30
2022-08-30T05:24:35.637Z,19.30
2022-08-30T05:27:09.721Z,19.30
2022-08-30T05:29:37.056Z,19.30
2022-08-30T05:32:11.095Z,19.40
2022-08-30T05:34:38.192Z,19.40
2022-08-30T05:37:11.691Z,19.50
2022-08-30T05:39:50.885Z,19.50
2022-08-30T05:42:25.962Z,19.60
2022-08-30T05:44:59.571Z,19.60
2022-08-30T05:47:26.762Z,19.70
2022-08-30T05:50:00.791Z,19.70
2022-08-30T05:52:34.822Z,19.70
2022-08-30T05:55:10.767Z,19.80
2022-08-30T05:57:40.032Z,19.80
2022-08-30T06:00:18.824Z,19.80
2022-08-30T06:02:46.278Z,19.80
2022-08-30T06:05:19.807Z,19.80
2022-08-30T06:07:53.964Z,19.80
2022-08-30T06:10:24.350Z,19.80
2022-08-30T06:12:58.901Z,19.80
2022-08-30T06:15:46.773Z,19.80
2022-08-30T06:18:14.062Z,19.80
2022-08-30T06:20:46.092Z,19.80
2022-08-30T06:23:24.650Z,19.80
2022-08-30T06:25:51.911Z,19.90
2022-08-30T06:28:21.399Z,19.90
2022-08-30T06:30:56.028Z,19.90
2022-08-30T06:33:23.428Z,20.00
2022-08-30T06:36:05.391Z,20.10
2022-08-30T06:38:34.729Z,20.10
2022-08-30T06:41:14.663Z,20.10
2022-08-30T06:43:49.397Z,20.10
2022-08-30T06:46:28.161Z,20.10
2022-08-30T06:49:23.783Z,20.10
2022-08-30T06:51:52.041Z,20.20
2022-08-30T06:54:27.856Z,20.20
2022-08-30T06:57:01.999Z,20.30
2022-08-30T06:59:29.431Z,20.30
2022-08-30T07:02:04.948Z,20.40
2022-08-30T07:04:32.814Z,20.40
2022-08-30T07:07:07.201Z,20.40
2022-08-30T07:09:35.964Z,20.40
2022-08-30T07:12:11.298Z,20.40
2022-08-30T07:14:45.053Z,20.50
2022-08-30T07:17:46.055Z,20.60
2022-08-30T07:20:14.152Z,20.60
2022-08-30T07:22:42.426Z,20.60
2022-08-30T07:25:17.741Z,20.60
2022-08-30T07:27:47.201Z,20.60
2022-08-30T07:30:21.005Z,20.60
2022-08-30T07:32:48.805Z,20.70
2022-08-30T07:35:22.726Z,20.70
2022-08-30T07:37:50.699Z,20.70
2022-08-30T07:40:25.755Z,20.80
2022-08-30T07:42:54.859Z,20.80
2022-08-30T07:45:29.929Z,20.90
2022-08-30T07:48:04.975Z,21.00
2022-08-30T07:50:41.061Z,21.00
2022-08-30T07:53:12.244Z,21.10
2022-08-30T07:55:46.969Z,21.20
2022-08-30T07:58:14.916Z,21.20
2022-08-30T08:00:50.191Z,21.30
2022-08-30T08:03:25.013Z,21.40
2022-08-30T08:05:53.775Z,21.40
2022-08-30T08:08:27.791Z,21.50
2022-08-30T08:10:55.456Z,21.60
2022-08-30T08:13:24.540Z,21.70
2022-08-30T08:16:03.962Z,21.70
2022-08-30T08:18:38.170Z,21.80
2022-08-30T08:21:12.950Z,21.90
2022-08-30T08:23:40.557Z,21.90
2022-08-30T08:26:17.022Z,22.00
2022-08-30T08:28:45.785Z,22.10
2022-08-30T08:31:25.516Z,22.20
2022-08-30T08:34:06.962Z,22.30
2022-08-30T08:36:42.192Z,22.40
2022-08-30T08:39:10.050Z,22.50
2022-08-30T08:41:44.190Z,22.60
2022-08-30T08:44:22.931Z,22.70
2022-08-30T08:47:03.001Z,22.80
2022-08-30T08:49:30.539Z,22.90
2022-08-30T08:52:23.828Z,23.00
2022-08-30T08:55:03.973Z,23.10
2022-08-30T08:57:34.084Z,23.20
2022-08-30T09:00:08.124Z,23.30
2022-08-30T09:02:47.806Z,23.40
2022-08-30T09:05:22.531Z,23.50
2022-08-30T09:07:59.696Z,23.60
2022-08-30T09:10:49.917Z,23.70
2022-08-30T09:13:19.578Z,23.80
2022-08-30T09:16:08.990Z,23.90
2022-08-30T09:21:47.786Z,24.10
2022-08-30T09:24:26.060Z,24.20
2022-08-30T09:27:00.338Z,24.40
2022-08-30T09:29:28.045Z,24.50
2022-08-30T09:32:24.595Z,24.60
2022-08-30T09:34:54.671Z,24.80
2022-08-30T09:37:37.960Z,24.90
2022-08-30T09:40:16.966Z,25.00
2022-08-30T09:42:59.744Z,25.20
2022-08-30T09:45:36.973Z,25.40
2022-08-30T09:48:30.115Z,25.60
2022-08-30T09:51:14.199Z,25.70
2022-08-30T09:54:17.019Z,25.80
2022-08-30T09:57:02.349Z,25.90
2022-08-30T09:59:44.419Z,25.90
2022-08-30T10:02:37.103Z,25.90
2022-08-30T10:05:23.033Z,26.00
2022-08-30T10:08:19.577Z,26.00
2022-08-30T10:11:00.028Z,26.00
2022-08-30T10:13:33.602Z,26.10
2022-08-30T10:16:12.702Z,26.10
2022-08-30T10:21:46.051Z,26.20
2022-08-30T10:24:28.190Z,26.30
2022-08-30T10:27:15.800Z,26.30
2022-08-30T10:29:47.708Z,26.40
2022-08-30T10:32:29.604Z,26.50
2022-08-30T10:35:06.046Z,26.60
2022-08-30T10:37:42.885Z,26.70
2022-08-30T10:40:43.977Z,26.70
2022-08-30T10:43:17.767Z,26.80
2022-08-30T10:45:54.225Z,26.90
2022-08-30T10:48:26.106Z,27.10
2022-08-30T10:51:03.290Z,27.20
2022-08-30T10:53:39.785Z,27.30
2022-08-30T10:56:09.075Z,27.50
2022-08-30T10:58:48.065Z,27.70
2022-08-30T11:01:17.342Z,27.90
2022-08-30T11:04:14.279Z,28.00
2022-08-30T11:07:00.104Z,28.20
2022-08-30T11:09:30.221Z,28.40
2022-08-30T11:12:07.506Z,28.60
2022-08-30T11:14:57.278Z,28.80
2022-08-30T11:17:36.399Z,29.10
2022-08-30T11:20:08.990Z,29.30
2022-08-30T11:22:43.977Z,29.40
2022-08-30T11:25:14.182Z,29.50
2022-08-30T11:27:55.712Z,29.70
2022-08-30T11:30:39.666Z,29.80
2022-08-30T11:33:14.411Z,29.90
2022-08-30T11:35:48.423Z,30.00
2022-08-30T11:38:30.838Z,30.10
2022-08-30T11:41:19.078Z,30.20
2022-08-30T11:44:15.318Z,30.20
2022-08-30T11:46:50.743Z,30.20
2022-08-30T11:49:27.633Z,30.30
2022-08-30T11:52:26.957Z,30.40
2022-08-30T11:55:11.174Z,30.40
2022-08-30T11:57:54.435Z,30.50
2022-08-30T12:00:28.872Z,30.60
2022-08-30T12:03:06.969Z,30.60
2022-08-30T12:05:51.467Z,30.70
2022-08-30T12:08:31.068Z,30.80
2022-08-30T12:10:58.168Z,30.80
2022-08-30T12:13:55.476Z,30.70
2022-08-30T12:17:17.978Z,30.70
2022-08-30T12:19:50.213Z,30.60
2022-08-30T12:22:26.173Z,30.50
2022-08-30T12:24:54.035Z,30.60
2022-08-30T12:27:39.218Z,30.70
2022-08-30T12:30:16.045Z,30.70
2022-08-30T12:32:50.683Z,30.70
2022-08-30T12:35:27.298Z,30.70
2022-08-30T12:38:00.533Z,30.80
2022-08-30T12:40:35.060Z,30.80
2022-08-30T12:43:24.736Z,30.80
2022-08-30T12:45:59.261Z,30.80
2022-08-30T12:48:36.285Z,30.90
2022-08-30T12:51:10.848Z,31.00
2022-08-30T12:53:42.146Z,31.00
2022-08-30T12:56:47.054Z,31.00
2022-08-30T12:59:10.323Z,31.00
2022-08-30T13:01:45.662Z,31.00
2022-08-30T13:04:25.223Z,31.10
2022-08-30T13:07:06.584Z,31.10
2022-08-30T13:09:40.633Z,31.10
2022-08-30T13:12:18.148Z,31.10
2022-08-30T13:15:06.863Z,31.20
2022-08-30T13:17:35.904Z,31.20
2022-08-30T13:20:19.203Z,31.20
2022-08-30T13:23:12.133Z,31.20
2022-08-30T13:25:41.294Z,31.20
2022-08-30T13:28:18.813Z,31.20
2022-08-30T13:30:46.831Z,31.20
2022-08-30T13:33:21.083Z,31.20
2022-08-30T13:35:55.816Z,31.20
2022-08-30T13:38:27.326Z,31.10
2022-08-30T13:41:09.144Z,31.10
2022-08-30T13:46:30.115Z,31.10
2022-08-30T13:54:51.327Z,31.00
2022-08-30T14:00:18.064Z,31.00
2022-08-30T14:02:54.042Z,30.90
2022-08-30T14:06:00.596Z,30.80
2022-08-30T14:08:48.845Z,30.80
2022-08-30T14:14:42.723Z,30.60
2022-08-30T14:17:17.950Z,30.50
2022-08-30T14:19:51.858Z,30.40
2022-08-30T14:22:28.058Z,30.30
2022-08-30T14:25:02.898Z,30.20
2022-08-30T14:27:30.898Z,30.10
2022-08-30T14:30:08.380Z,30.10
2022-08-30T14:32:45.993Z,29.90
2022-08-30T14:35:24.888Z,29.90
2022-08-30T14:38:02.948Z,29.80
2022-08-30T14:40:35.037Z,29.70
2022-08-30T14:43:13.140Z,29.60
2022-08-30T14:45:40.796Z,29.50
2022-08-30T14:48:21.604Z,29.40
2022-08-30T14:50:50.528Z,29.30
2022-08-30T14:53:27.403Z,29.20
2022-08-30T14:55:55.853Z,29.20
2022-08-30T14:58:45.872Z,29.10
2022-08-30T15:01:24.290Z,29.00
2022-08-30T15:03:53.442Z,28.90
2022-08-30T15:12:30.455Z,28.60
2022-08-30T15:15:05.663Z,28.50
2022-08-30T15:17:47.918Z,28.40
2022-08-30T15:23:08.238Z,28.20
2022-08-30T15:25:44.318Z,28.10
2022-08-30T15:28:22.160Z,28.00
2022-08-30T15:30:58.209Z,27.90
2022-08-30T15:33:29.503Z,27.90
2022-08-30T15:36:08.898Z,27.80
2022-08-30T15:38:37.393Z,27.70
2022-08-30T15:41:09.567Z,27.70
2022-08-30T15:43:45.050Z,27.60
2022-08-30T15:46:29.763Z,27.50
2022-08-30T15:49:07.950Z,27.40
2022-08-30T15:51:41.382Z,27.30
2022-08-30T15:54:19.313Z,27.20
2022-08-30T15:56:47.595Z,27.20
2022-08-30T15:59:26.499Z,27.10
2022-08-30T16:01:57.487Z,27.00
2022-08-30T16:04:25.601Z,26.90
2022-08-30T16:07:03.043Z,26.90
2022-08-30T16:09:39.828Z,26.80
2022-08-30T16:12:23.822Z,26.70
2022-08-30T16:18:19.263Z,26.60
2022-08-30T16:21:14.630Z,26.50
2022-08-30T16:24:01.473Z,26.40
2022-08-30T16:26:48.728Z,26.40
2022-08-30T16:29:19.411Z,26.30
2022-08-30T16:35:16.788Z,26.20
2022-08-30T16:38:09.814Z,26.20
2022-08-30T16:40:41.412Z,26.10
2022-08-30T16:43:41.448Z,26.10
2022-08-30T16:46:28.132Z,26.00
2022-08-30T16:49:05.588Z,25.90
2022-08-30T16:51:44.728Z,25.90
2022-08-30T16:54:12.223Z,25.80
2022-08-30T16:56:46.023Z,25.80
2022-08-30T16:59:21.193Z,25.70
2022-08-30T17:01:49.847Z,25.70
2022-08-30T17:04:24.093Z,25.70
2022-08-30T17:06:53.384Z,25.60
2022-08-30T17:09:34.264Z,25.50
2022-08-30T17:12:08.258Z,25.50
2022-08-30T17:14:38.633Z,25.50
2022-08-30T17:17:31.544Z,25.40
2022-08-30T17:20:05.273Z,25.40
2022-08-30T17:22:39.094Z,25.40
2022-08-30T17:25:07.949Z,25.30
2022-08-30T17:27:43.533Z,25.20
2022-08-30T17:30:23.513Z,25.20
2022-08-30T17:32:55.648Z,25.10
2022-08-30T17:35:33.133Z,25.10
2022-08-30T17:38:11.211Z,25.10
2022-08-30T17:40:45.194Z,25.10
2022-08-30T17:43:23.679Z,25.00
2022-08-30T17:45:51.468Z,25.00
2022-08-30T17:48:26.569Z,24.90
2022-08-30T17:50:57.835Z,24.90
2022-08-30T17:53:32.148Z,24.90
2022-08-30T17:56:00.808Z,24.80
2022-08-30T17:58:35.468Z,24.70
2022-08-30T18:01:12.480Z,24.70
2022-08-30T18:04:01.996Z,24.60
2022-08-30T18:06:40.108Z,24.60
2022-08-30T18:09:15.173Z,24.60
2022-08-30T18:11:52.129Z,24.50
2022-08-30T18:14:31.189Z,24.50
2022-08-30T18:17:14.709Z,24.40
2022-08-30T18:19:56.098Z,24.40
2022-08-30T18:22:32.188Z,24.40
2022-08-30T18:25:02.456Z,24.40
2022-08-30T18:27:39.249Z,24.30
2022-08-30T18:30:11.575Z,24.30
2022-08-30T18:32:46.224Z,24.20
2022-08-30T18:35:20.308Z,24.20
2022-08-30T18:37:48.148Z,24.20
2022-08-30T18:40:18.786Z,24.10
2022-08-30T18:42:53.170Z,24.10
2022-08-30T18:45:20.978Z,24.10
2022-08-30T18:47:58.444Z,24.00
2022-08-30T18:50:26.288Z,24.00
2022-08-30T18:53:01.144Z,24.00
2022-08-30T18:55:30.513Z,24.00
2022-08-30T18:58:04.351Z,23.90
2022-08-30T19:00:40.429Z,23.90
2022-08-30T19:03:15.128Z,23.90
2022-08-30T19:05:42.475Z,23.90
2022-08-30T19:08:17.463Z,23.90
2022-08-30T19:10:45.178Z,23.80
2022-08-30T19:13:35.078Z,23.80
2022-08-30T19:16:16.403Z,23.80
2022-08-30T19:18:52.299Z,23.80
2022-08-30T19:21:27.994Z,23.70
2022-08-30T19:24:02.484Z,23.70
2022-08-30T19:26:31.723Z,23.60
2022-08-30T19:29:06.176Z,23.60
2022-08-30T19:31:41.209Z,23.60
2022-08-30T19:34:08.824Z,23.60
2022-08-30T19:36:43.243Z,23.50
2022-08-30T19:39:19.532Z,23.50
2022-08-30T19:41:54.174Z,23.40
2022-08-30T19:44:28.601Z,23.30
2022-08-30T19:47:07.514Z,23.20
2022-08-30T19:49:36.183Z,23.10
2022-08-30T19:52:11.123Z,23.10
2022-08-30T19:54:41.246Z,23.10
2022-08-30T19:57:27.778Z,23.10
2022-08-30T19:59:56.402Z,23.10
2022-08-30T20:02:31.517Z,23.20
2022-08-30T20:04:58.975Z,23.20
2022-08-30T20:07:38.498Z,23.20
2022-08-30T20:10:07.735Z,23.20
2022-08-30T20:12:37.946Z,23.20
2022-08-30T20:15:16.106Z,23.20
2022-08-30T20:18:05.589Z,23.10
2022-08-30T20:20:42.114Z,23.10
2022-08-30T20:23:19.792Z,23.10
2022-08-30T20:25:58.223Z,23.10
2022-08-30T20:28:32.327Z,23.00
2022-08-30T20:31:06.418Z,23.00
2022-08-30T20:33:37.089Z,22.90
2022-08-30T20:36:15.047Z,22.90
2022-08-30T20:38:42.853Z,22.80
2022-08-30T20:41:19.328Z,22.80
2022-08-30T20:43:47.394Z,22.70
2022-08-30T20:46:23.372Z,22.70
2022-08-30T20:48:52.106Z,22.70
2022-08-30T20:51:30.049Z,22.70
2022-08-30T20:53:57.584Z,22.60
2022-08-30T20:56:35.479Z,22.50
2022-08-30T20:59:11.202Z,22.50
2022-08-30T21:01:40.819Z,22.40
2022-08-30T21:04:16.409Z,22.30
2022-08-30T21:06:44.719Z,22.20
2022-08-30T21:09:19.729Z,22.10
2022-08-30T21:11:58.091Z,22.10
2022-08-30T21:14:25.410Z,22.00
2022-08-30T21:17:14.279Z,22.00
2022-08-30T21:19:43.983Z,22.00
2022-08-30T21:22:20.040Z,22.00
2022-08-30T21:24:47.919Z,21.90
2022-08-30T21:27:22.747Z,21.90
2022-08-30T21:29:56.179Z,21.80
2022-08-30T21:32:30.030Z,21.90
2022-08-30T21:35:16.009Z,21.80
2022-08-30T21:37:50.070Z,21.70
2022-08-30T21:40:25.178Z,21.60
2022-08-30T21:43:02.553Z,21.60
2022-08-30T21:45:33.041Z,21.60
2022-08-30T21:48:07.284Z,21.60
2022-08-30T21:50:35.009Z,21.60
2022-08-30T21:53:09.726Z,21.50
2022-08-30T21:55:37.383Z,21.50
2022-08-30T21:58:11.609Z,21.40
2022-08-30T22:00:39.314Z,21.40
2022-08-30T22:03:13.358Z,21.30
2022-08-30T22:05:41.490Z,21.30
2022-08-30T22:08:15.130Z,21.30
2022-08-30T22:10:52.020Z,21.20
2022-08-30T22:13:21.209Z,21.20
2022-08-30T22:15:55.389Z,21.20
2022-08-30T22:18:30.589Z,21.10
2022-08-30T22:21:07.099Z,21.10
2022-08-30T22:23:41.749Z,21.10
2022-08-30T22:26:12.202Z,21.10
2022-08-30T22:28:40.182Z,21.10
2022-08-30T22:31:15.369Z,21.00
2022-08-30T22:33:43.719Z,21.00
2022-08-30T22:36:19.505Z,21.00
2022-08-30T22:38:47.810Z,21.00
2022-08-30T22:41:19.372Z,21.00
2022-08-30T22:44:00.190Z,21.00
2022-08-30T22:46:35.512Z,20.90
2022-08-30T22:49:06.341Z,20.90
2022-08-30T22:51:41.328Z,20.90
2022-08-30T22:54:11.158Z,20.90
2022-08-30T22:56:45.413Z,20.80
2022-08-30T22:59:19.619Z,20.80
2022-08-30T23:01:47.609Z,20.70
2022-08-30T23:04:21.959Z,20.70
2022-08-30T23:06:59.110Z,20.60
2022-08-30T23:09:29.946Z,20.60
2022-08-30T23:12:05.249Z,20.70
2022-08-30T23:14:39.764Z,20.70
2022-08-30T23:17:15.324Z,20.70
2022-08-30T23:19:53.781Z,20.70
2022-08-30T23:22:27.767Z,20.70
2022-08-30T23:25:16.017Z,20.60
2022-08-30T23:28:09.192Z,20.60
2022-08-30T23:30:55.231Z,20.50
2022-08-30T23:33:48.461Z,20.50
2022-08-30T23:36:34.300Z,20.40
2022-08-30T23:39:28.322Z,20.40
2022-08-30T23:42:23.293Z,20.40
2022-08-30T23:45:09.221Z,20.40
2022-08-30T23:48:01.191Z,20.40
2022-08-30T23:50:46.810Z,20.40
2022-08-30T23:53:39.419Z,20.40
2022-08-30T23:56:30.819Z,20.40
2022-08-30T23:59:22.972Z,20.50
